Strona główna
METAR-TAF:

METAR-TAF

Lotnisko :

Port lotniczy Kluż-Napoka

Kluż-Napoka, Rumunia

Szerokość geograficzna: 46-47N, Długość geograficzna: 023-34E, wysokość: 315 m

Aktualna obserwacja pogody

Raport powstał 28 minut temu, godzina 04:30 UTC
Wiatr 1 kt od wschodnio-południowy wschód
Temperatura 1°C
Wilgotność 80%
Ciśnienie 1023 hPa
Widzialność 10 km lub więcej
Brak chmur poniżej 1500 m i brak chmur cumulonimbus

METAR: LRCL 090430Z 11001KT CAVOK 01/M02 Q1023

czas: 07:58 (04:58 UTC)

Prognoza

Raport powstał 2 godziny i 58 minut temu, godzina 02:00 UTC
Prognoza ważna od 09 godzina 03 UTC do 09 godzina 12 UTC
Wiatr 4 kt z kierunków zmiennych
Widzialność 10 km lub więcej
Brak chmur poniżej 1500 m i brak chmur cumulonimbus

TAF: LRCL 090200Z 0903/0912 VRB04KT CAVOK

Obserwacja i prognoza pogody dla ponad 4000 lotnisk (raport METAR i TAF).

Dostępne stacje oznaczono żółtymi i czerwonymi punktami na mapie.

Najedź kursorem aby zobaczyć nazwę stacji.

Kliknij aby zobaczyć obserwacje i prognozy pogody.

Aby zmienić mapę: kliknij na zielony przycisk z czarnym krzyżykiem, aby powiększyć; na zielony przycisk z myślnikiem, aby pomniejszyć; na zielone strzałki, aby przejść do map sąsiednich.


METAR-TAF: